createdAt,value
2018-07-14T00:00:21.390Z,19.04
2018-07-14T00:01:21.409Z,18.95
2018-07-14T00:03:14.342Z,18.99
2018-07-14T00:04:14.347Z,19.02
2018-07-14T00:06:08.273Z,18.94
2018-07-14T00:07:08.276Z,18.91
2018-07-14T00:09:01.188Z,18.88
2018-07-14T00:10:01.262Z,18.84
2018-07-14T00:11:54.335Z,18.84
2018-07-14T00:12:54.341Z,18.87
2018-07-14T00:14:47.255Z,18.76
2018-07-14T00:15:47.274Z,18.78
2018-07-14T00:17:40.208Z,18.72
2018-07-14T00:18:40.209Z,18.67
2018-07-14T00:20:33.122Z,18.70
2018-07-14T00:21:33.144Z,18.67
2018-07-14T00:23:26.081Z,18.58
2018-07-14T00:24:26.156Z,18.62
2018-07-14T00:26:19.001Z,18.62
2018-07-14T00:27:19.026Z,18.52
2018-07-14T00:29:11.955Z,18.60
2018-07-14T00:30:11.956Z,18.48
2018-07-14T00:32:04.887Z,18.47
2018-07-14T00:33:04.891Z,18.48
2018-07-14T00:34:57.802Z,18.47
2018-07-14T00:35:57.826Z,18.39
2018-07-14T00:37:50.759Z,18.41
2018-07-14T00:38:50.758Z,18.41
2018-07-14T00:40:43.677Z,18.39
2018-07-14T00:41:43.704Z,18.36
2018-07-14T00:43:36.634Z,18.32
2018-07-14T00:44:36.640Z,18.27
2018-07-14T00:46:29.549Z,18.33
2018-07-14T00:47:29.571Z,18.33
2018-07-14T00:49:22.504Z,18.25
2018-07-14T00:50:22.507Z,18.32
2018-07-14T00:52:15.422Z,18.20
2018-07-14T00:53:15.441Z,18.26
2018-07-14T00:55:08.372Z,18.27
2018-07-14T00:56:08.375Z,18.00
2018-07-14T00:58:01.314Z,18.03
2018-07-14T00:59:01.320Z,17.99
2018-07-14T01:00:54.233Z,18.03
2018-07-14T01:01:54.251Z,18.00
2018-07-14T01:03:47.187Z,18.07
2018-07-14T01:04:47.186Z,18.11
2018-07-14T01:06:40.100Z,18.03
2018-07-14T01:07:40.119Z,18.03
2018-07-14T01:09:33.056Z,17.92
2018-07-14T01:10:33.119Z,17.96
2018-07-14T01:12:25.967Z,17.97
2018-07-14T01:13:26.010Z,17.90
2018-07-14T01:15:19.200Z,17.92
2018-07-14T01:16:19.125Z,17.96
2018-07-14T01:18:12.069Z,17.93
2018-07-14T01:19:12.057Z,17.82
2018-07-14T01:21:05.134Z,17.77
2018-07-14T01:22:05.139Z,17.72
2018-07-14T01:23:58.073Z,17.75
2018-07-14T01:24:58.073Z,17.72
2018-07-14T01:26:51.003Z,17.72
2018-07-14T01:27:51.007Z,17.78
2018-07-14T01:29:43.937Z,17.77
2018-07-14T01:30:43.936Z,17.72
2018-07-14T01:32:36.853Z,17.77
2018-07-14T01:33:36.870Z,17.75
2018-07-14T01:35:29.801Z,17.75
2018-07-14T01:36:29.802Z,17.77
2018-07-14T01:38:22.715Z,17.75
2018-07-14T01:39:22.737Z,17.77
2018-07-14T01:41:16.662Z,17.77
2018-07-14T01:42:16.663Z,17.75
2018-07-14T01:44:09.598Z,17.71
2018-07-14T01:45:09.599Z,17.63
2018-07-14T01:47:02.510Z,17.56
2018-07-14T01:48:02.532Z,17.55
2018-07-14T01:49:55.460Z,17.68
2018-07-14T01:50:55.463Z,17.58
2018-07-14T01:52:48.376Z,17.58
2018-07-14T01:53:48.396Z,17.56
2018-07-14T01:55:41.328Z,17.58
2018-07-14T01:56:41.330Z,17.68
2018-07-14T01:58:34.243Z,17.62
2018-07-14T01:59:34.267Z,17.49
2018-07-14T02:01:27.688Z,17.46
2018-07-14T02:02:27.689Z,17.43
2018-07-14T02:04:20.620Z,17.43
2018-07-14T02:05:20.644Z,17.34
2018-07-14T02:07:13.542Z,17.31
2018-07-14T02:08:13.565Z,17.33
2018-07-14T02:10:06.489Z,17.37
2018-07-14T02:11:07.023Z,17.25
2018-07-14T02:12:59.399Z,17.33
2018-07-14T02:13:59.424Z,17.36
2018-07-14T02:15:52.351Z,17.28
2018-07-14T02:16:52.351Z,17.31
2018-07-14T02:18:45.260Z,17.28
2018-07-14T02:19:45.283Z,17.18
2018-07-14T02:21:38.213Z,17.12
2018-07-14T02:22:38.216Z,17.18
2018-07-14T02:24:31.151Z,17.15
2018-07-14T02:25:31.151Z,17.18
2018-07-14T02:27:24.065Z,17.08
2018-07-14T02:28:24.089Z,17.16
2018-07-14T02:30:17.017Z,17.15
2018-07-14T02:31:17.021Z,17.18
2018-07-14T02:33:09.928Z,17.07
2018-07-14T02:34:09.948Z,17.22
2018-07-14T02:36:02.877Z,17.15
2018-07-14T02:37:02.878Z,17.11
2018-07-14T02:38:55.790Z,17.16
2018-07-14T02:39:55.809Z,17.08
2018-07-14T02:41:48.805Z,17.21
2018-07-14T02:42:48.744Z,17.15
2018-07-14T02:44:41.653Z,17.22
2018-07-14T02:45:41.674Z,17.18
2018-07-14T02:47:34.607Z,17.11
2018-07-14T02:48:34.607Z,17.18
2018-07-14T02:50:27.542Z,17.18
2018-07-14T02:51:27.540Z,17.11
2018-07-14T02:53:20.452Z,17.19
2018-07-14T02:54:20.473Z,17.18
2018-07-14T02:56:13.406Z,17.22
2018-07-14T02:57:13.403Z,17.22
2018-07-14T02:59:06.316Z,17.21
2018-07-14T03:00:06.340Z,17.18
2018-07-14T03:01:59.271Z,17.18
2018-07-14T03:02:59.272Z,17.16
2018-07-14T03:04:52.189Z,17.11
2018-07-14T03:05:52.205Z,17.18
2018-07-14T03:07:45.140Z,17.08
2018-07-14T03:08:45.136Z,17.06
2018-07-14T03:10:38.047Z,17.04
2018-07-14T03:11:38.075Z,17.06
2018-07-14T03:13:31.995Z,17.01
2018-07-14T03:14:31.994Z,17.01
2018-07-14T03:16:24.927Z,17.00
2018-07-14T03:17:24.926Z,16.98
2018-07-14T03:19:17.896Z,17.06
2018-07-14T03:20:17.867Z,17.08
2018-07-14T03:22:10.789Z,17.18
2018-07-14T03:23:10.792Z,17.08
2018-07-14T03:25:03.707Z,17.22
2018-07-14T03:26:03.727Z,17.16
2018-07-14T03:27:56.658Z,17.26
2018-07-14T03:28:56.663Z,17.18
2018-07-14T03:30:49.571Z,17.11
2018-07-14T03:31:49.590Z,17.16
2018-07-14T03:33:42.523Z,17.12
2018-07-14T03:34:42.524Z,17.22
2018-07-14T03:36:35.495Z,17.12
2018-07-14T03:37:35.457Z,17.16
2018-07-14T03:39:28.372Z,17.15
2018-07-14T03:40:28.393Z,17.07
2018-07-14T03:42:21.327Z,17.15
2018-07-14T03:43:21.385Z,17.12
2018-07-14T03:45:14.246Z,17.19
2018-07-14T03:46:14.350Z,17.25
2018-07-14T03:48:07.198Z,17.28
2018-07-14T03:49:07.197Z,17.30
2018-07-14T03:51:00.111Z,17.28
2018-07-14T03:52:00.132Z,17.38
2018-07-14T03:53:53.060Z,17.41
2018-07-14T03:54:53.062Z,17.55
2018-07-14T03:56:45.992Z,17.64
2018-07-14T03:57:45.995Z,17.79
2018-07-14T03:59:39.423Z,17.86
2018-07-14T04:00:39.422Z,17.97
2018-07-14T04:02:32.360Z,18.11
2018-07-14T04:03:32.357Z,18.20
2018-07-14T04:05:25.336Z,18.10
2018-07-14T04:06:25.366Z,18.23
2018-07-14T04:08:18.233Z,18.00
2018-07-14T04:09:18.293Z,18.17
2018-07-14T04:11:11.151Z,18.23
2018-07-14T04:12:11.173Z,18.29
2018-07-14T04:14:04.116Z,18.17
2018-07-14T04:15:04.118Z,18.18
2018-07-14T04:16:57.029Z,18.05
2018-07-14T04:17:57.053Z,18.07
2018-07-14T04:19:49.987Z,17.95
2018-07-14T04:20:49.988Z,18.11
2018-07-14T04:22:42.900Z,18.07
2018-07-14T04:23:42.918Z,18.07
2018-07-14T04:25:35.854Z,18.11
2018-07-14T04:26:35.856Z,18.08
2018-07-14T04:28:28.792Z,18.03
2018-07-14T04:29:28.795Z,17.99
2018-07-14T04:31:21.708Z,18.11
2018-07-14T04:32:21.732Z,17.95
2018-07-14T04:34:14.660Z,17.99
2018-07-14T04:35:14.663Z,17.84
2018-07-14T04:37:07.575Z,17.81
2018-07-14T04:38:07.594Z,17.72
2018-07-14T04:40:00.528Z,17.71
2018-07-14T04:41:00.528Z,17.77
2018-07-14T04:42:53.440Z,17.82
2018-07-14T04:43:53.462Z,17.86
2018-07-14T04:45:46.398Z,17.96
2018-07-14T04:46:46.398Z,17.95
2018-07-14T04:48:39.334Z,17.96
2018-07-14T04:49:39.333Z,17.97
2018-07-14T04:51:32.259Z,18.29
2018-07-14T04:52:32.266Z,18.33
2018-07-14T04:54:25.202Z,18.75
2018-07-14T04:55:25.205Z,18.98
2018-07-14T04:57:18.129Z,19.32
2018-07-14T04:58:18.149Z,19.43
2018-07-14T05:00:11.082Z,19.76
2018-07-14T05:01:11.092Z,19.86
2018-07-14T05:03:04.139Z,19.92
2018-07-14T05:04:04.166Z,19.86
2018-07-14T05:05:57.099Z,19.80
2018-07-14T05:06:57.102Z,20.01
2018-07-14T05:08:50.023Z,19.91
2018-07-14T05:09:50.051Z,19.94
2018-07-14T05:11:42.995Z,19.88
2018-07-14T05:12:42.996Z,19.91
2018-07-14T05:14:35.953Z,20.38
2018-07-14T05:15:35.944Z,20.64
2018-07-14T05:17:28.852Z,21.28
2018-07-14T05:18:28.929Z,21.32
2018-07-14T05:20:21.815Z,21.58
2018-07-14T05:21:21.837Z,21.68
2018-07-14T05:23:14.735Z,21.82
2018-07-14T05:24:14.760Z,21.90
2018-07-14T05:26:07.696Z,22.20
2018-07-14T05:27:07.704Z,22.18
2018-07-14T05:29:00.622Z,22.31
2018-07-14T05:30:00.650Z,22.46
2018-07-14T05:31:53.794Z,22.51
2018-07-14T05:32:53.801Z,22.55
2018-07-14T05:34:46.732Z,22.67
2018-07-14T05:35:46.750Z,22.80
2018-07-14T05:37:39.709Z,23.04
2018-07-14T05:38:39.697Z,22.91
2018-07-14T05:40:32.655Z,22.47
2018-07-14T05:41:32.650Z,22.39
2018-07-14T05:43:25.599Z,22.25
2018-07-14T05:44:25.606Z,22.10
2018-07-14T05:46:18.568Z,21.96
2018-07-14T05:47:18.554Z,22.00
2018-07-14T05:49:11.475Z,22.05
2018-07-14T05:50:11.503Z,22.22
2018-07-14T05:52:04.521Z,22.72
2018-07-14T05:53:04.458Z,23.04
2018-07-14T05:54:57.383Z,23.68
2018-07-14T05:55:57.455Z,23.87
2018-07-14T05:57:50.355Z,24.43
2018-07-14T05:58:50.360Z,24.64
2018-07-14T06:00:43.288Z,24.91
2018-07-14T06:01:43.319Z,24.93
2018-07-14T06:03:37.282Z,24.65
2018-07-14T06:04:37.267Z,24.73
2018-07-14T06:06:30.209Z,25.21
2018-07-14T06:07:30.216Z,25.35
2018-07-14T06:09:23.202Z,25.57
2018-07-14T06:10:23.170Z,25.70
2018-07-14T06:12:16.126Z,25.97
2018-07-14T06:13:16.130Z,26.09
2018-07-14T06:15:09.055Z,26.28
2018-07-14T06:16:09.084Z,26.07
2018-07-14T06:18:02.031Z,25.98
2018-07-14T06:19:02.042Z,25.95
2018-07-14T06:20:54.968Z,26.17
2018-07-14T06:21:54.997Z,26.26
2018-07-14T06:23:47.947Z,26.52
2018-07-14T06:24:47.956Z,26.62
2018-07-14T06:26:40.885Z,26.37
2018-07-14T06:27:40.914Z,26.45
2018-07-14T06:29:33.862Z,26.39
2018-07-14T06:30:33.872Z,26.37
2018-07-14T06:32:26.828Z,26.51
2018-07-14T06:33:26.837Z,26.45
2018-07-14T06:35:19.767Z,26.47
2018-07-14T06:36:19.799Z,26.43
2018-07-14T06:38:12.760Z,26.23
2018-07-14T06:39:12.763Z,26.06
2018-07-14T06:41:05.707Z,26.09
2018-07-14T06:42:05.756Z,26.13
2018-07-14T06:43:58.680Z,25.92
2018-07-14T06:44:58.694Z,25.90
2018-07-14T06:46:51.621Z,25.94
2018-07-14T06:47:51.651Z,26.07
2018-07-14T06:49:44.668Z,26.06
2018-07-14T06:50:44.614Z,26.09
2018-07-14T06:52:37.563Z,26.26
2018-07-14T06:53:37.573Z,26.23
2018-07-14T06:55:30.502Z,26.26
2018-07-14T06:56:30.537Z,26.28
2018-07-14T06:58:23.489Z,26.33
2018-07-14T06:59:23.497Z,26.21
2018-07-14T07:01:16.591Z,26.25
2018-07-14T07:02:16.620Z,26.28
2018-07-14T07:04:09.577Z,25.76
2018-07-14T07:05:09.584Z,25.54
2018-07-14T07:07:03.512Z,25.50
2018-07-14T07:08:03.542Z,25.55
2018-07-14T07:09:56.553Z,25.60
2018-07-14T07:10:56.557Z,25.62
2018-07-14T07:12:49.556Z,25.80
2018-07-14T07:13:49.614Z,25.82
2018-07-14T07:15:42.565Z,25.80
2018-07-14T07:16:42.525Z,25.91
2018-07-14T07:18:35.541Z,25.90
2018-07-14T07:19:35.509Z,25.77
2018-07-14T07:21:28.544Z,25.77
2018-07-14T07:22:28.458Z,25.85
2018-07-14T07:24:21.413Z,25.91
2018-07-14T07:25:21.422Z,25.85
2018-07-14T07:27:14.359Z,25.83
2018-07-14T07:28:14.389Z,25.77
2018-07-14T07:30:07.346Z,25.70
2018-07-14T07:31:07.357Z,25.73
2018-07-14T07:33:00.290Z,25.58
2018-07-14T07:34:00.384Z,25.27
2018-07-14T07:35:53.275Z,24.95
2018-07-14T07:36:53.278Z,24.78
2018-07-14T07:38:46.204Z,24.43
2018-07-14T07:39:46.235Z,24.42
2018-07-14T07:41:39.187Z,24.40
2018-07-14T07:42:39.190Z,24.18
2018-07-14T07:44:32.153Z,24.03
2018-07-14T07:45:32.161Z,23.93
2018-07-14T07:47:25.090Z,23.68
2018-07-14T07:48:25.117Z,23.68
2018-07-14T07:50:18.064Z,23.58
2018-07-14T07:51:18.072Z,23.51
2018-07-14T07:53:10.991Z,23.23
2018-07-14T07:54:11.023Z,23.01
2018-07-14T07:56:03.965Z,23.02
2018-07-14T07:57:03.972Z,22.95
2018-07-14T07:58:56.949Z,22.65
2018-07-14T07:59:56.923Z,22.47
2018-07-14T08:01:49.873Z,22.43
2018-07-14T08:02:49.874Z,22.47
2018-07-14T08:04:42.795Z,22.43
2018-07-14T08:05:42.824Z,22.40
2018-07-14T08:07:35.772Z,22.45
2018-07-14T08:08:35.837Z,22.51
2018-07-14T08:10:28.734Z,22.57
2018-07-14T08:11:28.727Z,22.55
2018-07-14T08:13:21.647Z,22.65
2018-07-14T08:14:21.678Z,22.67
2018-07-14T08:16:14.616Z,22.79
2018-07-14T08:17:14.623Z,22.83
2018-07-14T08:19:07.554Z,22.83
2018-07-14T08:20:07.577Z,22.94
2018-07-14T08:22:00.526Z,22.92
2018-07-14T08:23:00.535Z,23.17
2018-07-14T08:24:53.454Z,23.39
2018-07-14T08:25:53.482Z,23.36
2018-07-14T08:27:46.429Z,23.43
2018-07-14T08:28:46.431Z,23.43
2018-07-14T08:30:39.352Z,23.40
2018-07-14T08:31:39.380Z,23.46
2018-07-14T08:33:32.328Z,23.43
2018-07-14T08:34:32.335Z,23.36
2018-07-14T08:36:25.305Z,23.42
2018-07-14T08:37:25.290Z,23.46
2018-07-14T08:39:18.239Z,23.43
2018-07-14T08:40:18.243Z,23.47
2018-07-14T08:42:11.198Z,23.57
2018-07-14T08:43:11.201Z,23.47
2018-07-14T08:45:04.126Z,23.63
2018-07-14T08:46:04.149Z,23.57
2018-07-14T08:47:57.098Z,23.58
2018-07-14T08:48:57.106Z,23.61
2018-07-14T08:50:50.035Z,23.61
2018-07-14T08:51:50.059Z,23.70
2018-07-14T08:53:43.009Z,23.78
2018-07-14T08:54:43.014Z,23.70
2018-07-14T08:56:35.964Z,23.78
2018-07-14T08:57:35.964Z,23.72
2018-07-14T08:59:28.892Z,23.87
2018-07-14T09:00:28.920Z,23.80
2018-07-14T09:02:21.873Z,23.66
2018-07-14T09:03:21.878Z,23.70
2018-07-14T09:05:14.809Z,23.68
2018-07-14T09:06:14.836Z,23.60
2018-07-14T09:08:07.787Z,23.63
2018-07-14T09:09:07.792Z,23.70
2018-07-14T09:11:00.715Z,23.60
2018-07-14T09:12:00.744Z,23.63
2018-07-14T09:13:53.694Z,23.87
2018-07-14T09:14:53.697Z,23.91
2018-07-14T09:16:46.623Z,23.88
2018-07-14T09:17:46.648Z,23.91
2018-07-14T09:19:39.589Z,24.03
2018-07-14T09:20:39.601Z,23.95
2018-07-14T09:22:32.560Z,24.05
2018-07-14T09:23:32.555Z,24.12
2018-07-14T09:25:25.478Z,24.20
2018-07-14T09:26:25.499Z,24.22
2018-07-14T09:28:18.453Z,24.10
2018-07-14T09:29:18.457Z,24.05
2018-07-14T09:31:11.382Z,24.00
2018-07-14T09:32:11.405Z,24.08
2018-07-14T09:34:04.377Z,24.25
2018-07-14T09:35:04.383Z,24.20
2018-07-14T09:36:57.307Z,24.18
2018-07-14T09:37:57.383Z,24.25
2018-07-14T09:39:50.281Z,24.20
2018-07-14T09:40:50.286Z,24.08
2018-07-14T09:42:43.212Z,23.91
2018-07-14T09:43:43.238Z,23.93
2018-07-14T09:45:36.194Z,23.79
2018-07-14T09:46:36.201Z,23.80
2018-07-14T09:48:29.151Z,23.70
2018-07-14T09:49:29.151Z,23.73
2018-07-14T09:51:22.077Z,23.73
2018-07-14T09:52:22.101Z,23.69
2018-07-14T09:54:15.049Z,23.55
2018-07-14T09:55:15.128Z,23.78
2018-07-14T09:57:07.977Z,23.73
2018-07-14T09:58:08.006Z,23.87
2018-07-14T10:00:01.099Z,24.03
2018-07-14T10:01:01.102Z,24.12
2018-07-14T10:02:54.020Z,24.13
2018-07-14T10:03:54.053Z,24.10
2018-07-14T10:05:46.990Z,24.02
2018-07-14T10:06:46.998Z,24.10
2018-07-14T10:08:39.952Z,24.25
2018-07-14T10:09:39.947Z,24.30
2018-07-14T10:11:32.869Z,24.37
2018-07-14T10:12:32.897Z,24.52
2018-07-14T10:14:25.836Z,24.71
2018-07-14T10:15:25.845Z,24.65
2018-07-14T10:17:18.775Z,24.52
2018-07-14T10:18:18.795Z,24.55
2018-07-14T10:20:11.740Z,24.64
2018-07-14T10:21:11.741Z,24.58
2018-07-14T10:23:04.664Z,24.76
2018-07-14T10:24:04.691Z,24.84
2018-07-14T10:25:57.728Z,24.91
2018-07-14T10:26:57.646Z,24.84
2018-07-14T10:28:50.566Z,24.93
2018-07-14T10:29:50.593Z,24.80
2018-07-14T10:31:43.538Z,24.80
2018-07-14T10:32:50.682Z,24.78
2018-07-14T10:34:36.516Z,24.73
2018-07-14T10:35:36.520Z,24.68
2018-07-14T10:37:29.455Z,24.71
2018-07-14T10:38:29.471Z,24.64
2018-07-14T10:40:22.419Z,24.76
2018-07-14T10:41:22.421Z,24.76
2018-07-14T10:43:15.343Z,24.95
2018-07-14T10:44:15.371Z,25.02
2018-07-14T10:46:08.323Z,25.15
2018-07-14T10:47:08.327Z,25.18
2018-07-14T10:49:01.249Z,25.24
2018-07-14T10:50:01.287Z,25.25
2018-07-14T10:51:54.227Z,25.35
2018-07-14T10:52:54.236Z,25.24
2018-07-14T10:54:47.179Z,25.24
2018-07-14T10:55:47.182Z,25.25
2018-07-14T10:57:40.106Z,25.28
2018-07-14T10:58:40.134Z,25.38
2018-07-14T11:00:33.073Z,25.67
2018-07-14T11:01:33.084Z,25.82
2018-07-14T11:03:26.015Z,25.80
2018-07-14T11:04:26.104Z,25.77
2018-07-14T11:06:18.995Z,25.69
2018-07-14T11:07:18.997Z,25.70
2018-07-14T11:09:11.923Z,25.51
2018-07-14T11:10:11.951Z,25.51
2018-07-14T11:12:04.924Z,25.50
2018-07-14T11:13:04.908Z,25.50
2018-07-14T11:14:57.840Z,25.62
2018-07-14T11:15:57.868Z,25.77
2018-07-14T11:17:50.870Z,25.91
2018-07-14T11:18:50.853Z,26.09
2018-07-14T11:20:43.760Z,26.12
2018-07-14T11:21:43.787Z,26.26
2018-07-14T11:23:36.775Z,26.29
2018-07-14T11:24:36.745Z,26.10
2018-07-14T11:26:29.680Z,26.07
2018-07-14T11:27:29.694Z,25.95
2018-07-14T11:29:22.613Z,25.79
2018-07-14T11:30:22.735Z,25.73
2018-07-14T11:32:15.585Z,25.65
2018-07-14T11:33:15.594Z,25.61
2018-07-14T11:35:08.521Z,25.62
2018-07-14T11:36:08.548Z,25.69
2018-07-14T11:38:01.493Z,25.82
2018-07-14T11:39:01.501Z,25.95
2018-07-14T11:40:54.488Z,26.07
2018-07-14T11:41:54.504Z,26.09
2018-07-14T11:43:47.455Z,26.12
2018-07-14T11:44:47.460Z,26.07
2018-07-14T11:46:40.409Z,26.13
2018-07-14T11:47:40.532Z,26.07
2018-07-14T11:49:33.357Z,26.06
2018-07-14T11:50:33.364Z,26.07
2018-07-14T11:52:26.327Z,25.95
2018-07-14T11:53:26.322Z,25.91
2018-07-14T11:55:19.243Z,25.98
2018-07-14T11:56:19.273Z,26.06
2018-07-14T11:58:12.216Z,26.09
2018-07-14T11:59:12.221Z,26.21
2018-07-14T12:01:05.173Z,26.43
2018-07-14T12:02:05.206Z,26.39
2018-07-14T12:03:58.120Z,26.57
2018-07-14T12:04:58.126Z,26.60
2018-07-14T12:06:51.054Z,26.51
2018-07-14T12:07:51.078Z,26.57
2018-07-14T12:09:44.052Z,26.76
2018-07-14T12:10:44.050Z,26.76
2018-07-14T12:12:36.970Z,26.89
2018-07-14T12:13:37.035Z,26.95
2018-07-14T12:15:29.948Z,26.94
2018-07-14T12:16:29.957Z,26.99
2018-07-14T12:18:22.904Z,26.92
2018-07-14T12:19:22.914Z,26.80
2018-07-14T12:21:15.844Z,26.69
2018-07-14T12:22:15.881Z,26.81
2018-07-14T12:24:08.805Z,26.63
2018-07-14T12:25:08.820Z,26.47
2018-07-14T12:27:01.743Z,26.50
2018-07-14T12:28:01.773Z,26.48
2018-07-14T12:29:54.760Z,26.43
2018-07-14T12:30:54.740Z,26.35
2018-07-14T12:32:47.649Z,26.43
2018-07-14T12:33:47.680Z,26.37
2018-07-14T12:35:40.690Z,26.40
2018-07-14T12:36:40.646Z,26.33
2018-07-14T12:38:33.561Z,26.57
2018-07-14T12:39:33.591Z,26.63
2018-07-14T12:41:26.535Z,26.66
2018-07-14T12:42:26.570Z,26.67
2018-07-14T12:44:19.489Z,26.43
2018-07-14T12:45:19.496Z,26.58
2018-07-14T12:47:12.427Z,26.52
2018-07-14T12:48:12.480Z,26.30
2018-07-14T12:50:05.459Z,26.39
2018-07-14T12:51:05.405Z,26.33
2018-07-14T12:52:58.331Z,26.44
2018-07-14T12:53:58.509Z,26.51
2018-07-14T12:55:51.311Z,26.58
2018-07-14T12:56:51.317Z,26.47
2018-07-14T12:58:44.239Z,26.65
2018-07-14T12:59:44.301Z,26.72
2018-07-14T13:01:37.216Z,26.91
2018-07-14T13:02:37.222Z,26.99
2018-07-14T13:04:30.146Z,26.95
2018-07-14T13:05:30.174Z,26.95
2018-07-14T13:07:23.130Z,26.97
2018-07-14T13:08:23.127Z,26.88
2018-07-14T13:10:16.078Z,26.89
2018-07-14T13:11:16.093Z,26.88
2018-07-14T13:13:09.063Z,26.95
2018-07-14T13:14:09.038Z,26.94
2018-07-14T13:16:01.984Z,27.10
2018-07-14T13:17:01.991Z,27.21
2018-07-14T13:18:54.915Z,27.32
2018-07-14T13:19:54.944Z,27.24
2018-07-14T13:21:48.083Z,27.37
2018-07-14T13:22:48.088Z,27.21
2018-07-14T13:24:41.019Z,27.22
2018-07-14T13:25:41.044Z,27.19
2018-07-14T13:27:33.986Z,27.06
2018-07-14T13:28:33.994Z,26.94
2018-07-14T13:30:27.126Z,26.89
2018-07-14T13:31:27.149Z,26.87
2018-07-14T13:33:20.096Z,26.50
2018-07-14T13:34:20.101Z,26.52
2018-07-14T13:36:13.111Z,26.45
2018-07-14T13:37:13.053Z,26.55
2018-07-14T13:39:05.995Z,26.63
2018-07-14T13:40:06.011Z,26.69
2018-07-14T13:41:58.949Z,26.73
2018-07-14T13:42:58.958Z,26.85
2018-07-14T13:44:51.882Z,26.95
2018-07-14T13:45:51.920Z,27.02
2018-07-14T13:47:44.917Z,27.10
2018-07-14T13:48:44.863Z,27.00
2018-07-14T13:50:37.791Z,27.09
2018-07-14T13:51:37.823Z,27.14
2018-07-14T13:53:30.781Z,26.99
2018-07-14T13:54:30.821Z,27.02
2018-07-14T13:56:23.695Z,27.06
2018-07-14T13:57:23.722Z,26.99
2018-07-14T13:59:16.787Z,27.17
2018-07-14T14:00:16.736Z,27.22
2018-07-14T14:02:09.619Z,27.27
2018-07-14T14:03:09.627Z,27.31
2018-07-14T14:05:02.556Z,27.39
2018-07-14T14:06:02.585Z,27.40
2018-07-14T14:07:55.527Z,27.44
2018-07-14T14:08:55.534Z,27.50
2018-07-14T14:10:48.459Z,27.55
2018-07-14T14:11:48.491Z,27.54
2018-07-14T14:13:41.435Z,27.50
2018-07-14T14:14:41.441Z,27.49
2018-07-14T14:16:34.365Z,27.60
2018-07-14T14:17:34.393Z,27.60
2018-07-14T14:19:27.339Z,27.65
2018-07-14T14:20:27.353Z,27.65
2018-07-14T14:22:20.298Z,27.63
2018-07-14T14:23:20.308Z,27.60
2018-07-14T14:25:13.231Z,27.67
2018-07-14T14:26:13.270Z,27.67
2018-07-14T14:28:06.203Z,27.82
2018-07-14T14:29:06.211Z,27.85
2018-07-14T14:30:59.137Z,27.96
2018-07-14T14:31:59.166Z,27.96
2018-07-14T14:33:52.113Z,27.84
2018-07-14T14:34:52.125Z,27.70
2018-07-14T14:36:45.044Z,27.87
2018-07-14T14:37:45.074Z,27.85
2018-07-14T14:39:38.022Z,27.82
2018-07-14T14:40:38.032Z,27.84
2018-07-14T14:42:30.954Z,27.93
2018-07-14T14:43:30.983Z,28.04
2018-07-14T14:45:23.931Z,28.00
2018-07-14T14:46:23.938Z,28.07
2018-07-14T14:48:16.922Z,28.18
2018-07-14T14:49:16.894Z,27.99
2018-07-14T14:51:09.820Z,27.88
2018-07-14T14:52:09.848Z,27.78
2018-07-14T14:54:02.831Z,27.60
2018-07-14T14:55:02.804Z,27.55
2018-07-14T14:56:55.735Z,27.59
2018-07-14T14:57:55.762Z,27.54
2018-07-14T14:59:48.708Z,27.66
2018-07-14T15:00:48.717Z,27.69
2018-07-14T15:02:41.640Z,27.78
2018-07-14T15:03:41.669Z,27.82
2018-07-14T15:05:34.705Z,27.85
2018-07-14T15:06:34.621Z,27.94
2018-07-14T15:08:27.582Z,27.69
2018-07-14T15:09:27.576Z,27.57
2018-07-14T15:11:20.501Z,27.49
2018-07-14T15:12:20.529Z,27.54
2018-07-14T15:14:13.471Z,27.77
2018-07-14T15:15:13.485Z,27.81
2018-07-14T15:17:06.406Z,27.99
2018-07-14T15:18:06.435Z,28.14
2018-07-14T15:19:59.382Z,28.21
2018-07-14T15:20:59.388Z,28.19
2018-07-14T15:22:52.328Z,28.02
2018-07-14T15:23:52.348Z,28.06
2018-07-14T15:25:45.312Z,28.15
2018-07-14T15:26:45.299Z,28.12
2018-07-14T15:28:38.238Z,28.18
2018-07-14T15:29:38.254Z,28.19
2018-07-14T15:31:32.264Z,28.17
2018-07-14T15:32:32.252Z,28.02
2018-07-14T15:34:25.163Z,27.65
2018-07-14T15:35:25.165Z,27.49
2018-07-14T15:37:18.092Z,27.29
2018-07-14T15:38:18.124Z,27.17
2018-07-14T15:40:11.073Z,27.12
2018-07-14T15:41:11.078Z,27.19
2018-07-14T15:43:04.003Z,27.18
2018-07-14T15:44:04.033Z,27.27
2018-07-14T15:45:56.978Z,27.24
2018-07-14T15:46:57.030Z,27.25
2018-07-14T15:48:49.908Z,27.25
2018-07-14T15:49:49.941Z,27.22
2018-07-14T15:51:42.882Z,27.29
2018-07-14T15:52:42.889Z,27.40
2018-07-14T15:54:35.834Z,27.29
2018-07-14T15:55:35.841Z,27.32
2018-07-14T15:57:28.766Z,27.36
2018-07-14T15:58:28.793Z,27.36
2018-07-14T16:00:21.758Z,27.36
2018-07-14T16:01:21.748Z,27.39
2018-07-14T16:03:14.705Z,27.49
2018-07-14T16:04:14.701Z,27.49
2018-07-14T16:06:07.646Z,27.50
2018-07-14T16:07:07.655Z,27.47
2018-07-14T16:09:00.583Z,27.43
2018-07-14T16:10:00.610Z,27.46
2018-07-14T16:11:53.565Z,27.50
2018-07-14T16:12:53.564Z,27.62
2018-07-14T16:14:46.490Z,27.65
2018-07-14T16:15:46.522Z,27.74
2018-07-14T16:17:39.518Z,27.77
2018-07-14T16:18:39.478Z,27.84
2018-07-14T16:20:32.490Z,27.67
2018-07-14T16:21:32.454Z,27.77
2018-07-14T16:23:25.409Z,27.79
2018-07-14T16:24:25.413Z,27.85
2018-07-14T16:26:18.422Z,27.79
2018-07-14T16:27:18.390Z,27.90
2018-07-14T16:29:12.312Z,27.97
2018-07-14T16:30:12.342Z,28.06
2018-07-14T16:32:05.293Z,28.19
2018-07-14T16:33:05.298Z,28.21
2018-07-14T16:34:58.224Z,28.02
2018-07-14T16:35:58.374Z,27.99
2018-07-14T16:37:51.200Z,28.02
2018-07-14T16:38:51.206Z,27.96
2018-07-14T16:40:44.133Z,28.11
2018-07-14T16:41:44.171Z,28.03
2018-07-14T16:43:37.113Z,27.94
2018-07-14T16:44:37.112Z,28.02
2018-07-14T16:46:30.311Z,27.90
2018-07-14T16:47:30.488Z,27.90
2018-07-14T16:49:23.272Z,27.67
2018-07-14T16:50:23.302Z,27.66
2018-07-14T16:52:16.199Z,27.49
2018-07-14T16:53:16.201Z,27.57
2018-07-14T16:55:09.125Z,27.66
2018-07-14T16:56:09.153Z,27.63
2018-07-14T16:58:02.143Z,27.62
2018-07-14T16:59:02.108Z,27.66
2018-07-14T17:00:55.077Z,27.62
2018-07-14T17:01:55.064Z,27.70
2018-07-14T17:03:48.007Z,27.79
2018-07-14T17:04:48.017Z,27.63
2018-07-14T17:06:40.982Z,27.49
2018-07-14T17:07:40.997Z,27.49
2018-07-14T17:09:33.948Z,27.50
2018-07-14T17:10:33.954Z,27.49
2018-07-14T17:12:26.880Z,27.41
2018-07-14T17:13:26.908Z,27.44
2018-07-14T17:15:20.057Z,27.41
2018-07-14T17:16:20.065Z,27.50
2018-07-14T17:18:13.016Z,27.70
2018-07-14T17:19:13.020Z,27.75
2018-07-14T17:21:05.982Z,27.74
2018-07-14T17:22:05.974Z,27.87
2018-07-14T17:23:58.919Z,27.97
2018-07-14T17:24:58.927Z,27.93
2018-07-14T17:26:51.854Z,27.77
2018-07-14T17:27:51.883Z,27.62
2018-07-14T17:29:44.834Z,27.67
2018-07-14T17:30:44.838Z,27.57
2018-07-14T17:32:37.773Z,27.54
2018-07-14T17:33:37.792Z,27.49
2018-07-14T17:35:30.775Z,27.50
2018-07-14T17:36:30.743Z,27.46
2018-07-14T17:38:23.672Z,27.44
2018-07-14T17:39:23.702Z,27.36
2018-07-14T17:41:17.644Z,27.36
2018-07-14T17:42:17.651Z,27.31
2018-07-14T17:44:10.596Z,27.39
2018-07-14T17:45:10.603Z,27.37
2018-07-14T17:47:03.529Z,27.41
2018-07-14T17:48:03.559Z,27.32
2018-07-14T17:49:56.510Z,27.28
2018-07-14T17:50:56.515Z,27.43
2018-07-14T17:52:49.438Z,27.51
2018-07-14T17:53:49.466Z,27.67
2018-07-14T17:55:42.419Z,27.90
2018-07-14T17:56:42.429Z,28.00
2018-07-14T17:58:35.381Z,28.21
2018-07-14T17:59:35.388Z,28.36
2018-07-14T18:01:28.340Z,28.59
2018-07-14T18:02:28.345Z,28.59
2018-07-14T18:04:21.280Z,28.68
2018-07-14T18:05:21.308Z,28.68
2018-07-14T18:07:15.289Z,28.80
2018-07-14T18:08:15.256Z,28.88
2018-07-14T18:10:08.225Z,29.06
2018-07-14T18:11:08.231Z,29.09
2018-07-14T18:13:01.150Z,29.00
2018-07-14T18:14:01.182Z,29.00
2018-07-14T18:15:54.132Z,28.83
2018-07-14T18:16:54.139Z,28.77
2018-07-14T18:18:47.066Z,28.76
2018-07-14T18:19:47.095Z,28.68
2018-07-14T18:21:40.048Z,28.77
2018-07-14T18:22:40.055Z,28.70
2018-07-14T18:24:32.983Z,28.76
2018-07-14T18:25:33.041Z,28.74
2018-07-14T18:27:25.964Z,28.78
2018-07-14T18:28:25.971Z,28.93
2018-07-14T18:30:18.901Z,28.77
2018-07-14T18:31:18.932Z,28.88
2018-07-14T18:33:11.884Z,28.77